createdAt,value
2023-04-06T00:01:12.968Z,101757.91
2023-04-06T00:04:14.638Z,101751.84
2023-04-06T00:07:16.424Z,101744.00
2023-04-06T00:10:18.242Z,101750.19
2023-04-06T00:13:19.820Z,101744.09
2023-04-06T00:16:23.664Z,101739.78
2023-04-06T00:19:26.492Z,101733.69
2023-04-06T00:22:28.059Z,101729.34
2023-04-06T00:25:29.628Z,101727.63
2023-04-06T00:28:31.191Z,101727.66
2023-04-06T00:31:32.797Z,101723.31
2023-04-06T00:34:34.375Z,101720.75
2023-04-06T00:37:36.110Z,101715.53
2023-04-06T00:40:37.724Z,101705.97
2023-04-06T00:43:39.457Z,101710.44
2023-04-06T00:46:41.223Z,101706.13
2023-04-06T00:49:42.803Z,101701.78
2023-04-06T00:52:44.366Z,101703.66
2023-04-06T00:55:45.993Z,101699.34
2023-04-06T00:58:47.716Z,101695.88
2023-04-06T01:01:49.423Z,101692.38
2023-04-06T01:04:51.077Z,101694.19
2023-04-06T01:07:52.693Z,101685.50
2023-04-06T01:10:54.241Z,101684.63
2023-04-06T01:13:56.366Z,101682.91
2023-04-06T01:16:59.716Z,101680.28
2023-04-06T01:20:01.444Z,101682.09
2023-04-06T01:23:03.202Z,101681.25
2023-04-06T01:26:04.886Z,101670.84
2023-04-06T01:29:06.739Z,101670.88
2023-04-06T01:32:09.020Z,101675.25
2023-04-06T01:35:10.740Z,101675.25
2023-04-06T01:38:12.315Z,101670.06
2023-04-06T01:41:13.970Z,101671.81
2023-04-06T01:44:22.333Z,101670.09
2023-04-06T01:47:23.943Z,101664.91
2023-04-06T01:50:25.601Z,101663.19
2023-04-06T01:53:27.156Z,101661.50
2023-04-06T01:56:28.743Z,101661.53
2023-04-06T01:59:30.628Z,101647.56
2023-04-06T02:02:32.388Z,101645.00
2023-04-06T02:05:38.832Z,101639.75
2023-04-06T02:08:40.626Z,101639.81
2023-04-06T02:11:42.191Z,101640.72
2023-04-06T02:14:43.811Z,101637.28
2023-04-06T02:17:45.817Z,101637.28
2023-04-06T02:20:47.468Z,101630.31
2023-04-06T02:23:50.429Z,101630.31
2023-04-06T02:26:52.084Z,101634.69
2023-04-06T02:29:53.663Z,101633.84
2023-04-06T02:32:55.689Z,101636.47
2023-04-06T02:35:57.344Z,101635.63
2023-04-06T02:38:58.967Z,101638.28
2023-04-06T02:42:00.954Z,101625.22
2023-04-06T02:45:03.043Z,101627.84
2023-04-06T02:48:05.035Z,101622.63
2023-04-06T02:51:07.076Z,101620.94
2023-04-06T02:54:08.694Z,101614.84
2023-04-06T02:57:10.298Z,101617.53
2023-04-06T03:00:13.065Z,101621.88
2023-04-06T03:03:14.933Z,101618.41
2023-04-06T03:06:16.598Z,101618.44
2023-04-06T03:09:18.255Z,101623.69
2023-04-06T03:12:19.842Z,101615.81
2023-04-06T03:15:21.519Z,101617.53
2023-04-06T03:18:25.048Z,101614.00
2023-04-06T03:21:26.629Z,101614.72
2023-04-06T03:24:28.328Z,101618.22
2023-04-06T03:27:30.241Z,101618.25
2023-04-06T03:30:31.870Z,101617.44
2023-04-06T03:33:33.533Z,101610.50
2023-04-06T03:36:35.895Z,101617.53
2023-04-06T03:39:37.782Z,101622.84
2023-04-06T03:42:39.370Z,101619.38
2023-04-06T03:45:41.026Z,101617.66
2023-04-06T03:48:42.595Z,101621.16
2023-04-06T03:51:44.198Z,101610.75
2023-04-06T03:54:45.782Z,101605.53
2023-04-06T03:57:47.389Z,101615.19
2023-04-06T04:00:48.975Z,101611.72
2023-04-06T04:03:51.950Z,101612.63
2023-04-06T04:06:53.679Z,101619.63
2023-04-06T04:09:55.321Z,101611.84
2023-04-06T04:12:56.898Z,101617.97
2023-04-06T04:15:58.819Z,101612.78
2023-04-06T04:19:00.498Z,101613.69
2023-04-06T04:22:05.412Z,101620.72
2023-04-06T04:25:07.264Z,101611.19
2023-04-06T04:28:08.825Z,101621.69
2023-04-06T04:31:10.412Z,101611.22
2023-04-06T04:34:11.995Z,101618.19
2023-04-06T04:37:13.545Z,101617.31
2023-04-06T04:40:15.507Z,101619.94
2023-04-06T04:43:17.338Z,101616.41
2023-04-06T04:46:18.882Z,101614.72
2023-04-06T04:49:20.620Z,101613.84
2023-04-06T04:52:22.187Z,101612.09
2023-04-06T04:55:23.754Z,101611.25
2023-04-06T04:58:25.378Z,101610.34
2023-04-06T05:01:26.926Z,101620.78
2023-04-06T05:04:28.552Z,101621.66
2023-04-06T05:07:30.253Z,101614.63
2023-04-06T05:10:31.901Z,101612.84
2023-04-06T05:13:33.492Z,101615.44
2023-04-06T05:16:35.331Z,101613.63
2023-04-06T05:19:37.085Z,101612.69
2023-04-06T05:22:38.665Z,101617.03
2023-04-06T05:25:40.307Z,101619.59
2023-04-06T05:28:43.526Z,101617.78
2023-04-06T05:31:45.277Z,101615.03
2023-04-06T05:34:46.971Z,101612.28
2023-04-06T05:37:48.545Z,101615.66
2023-04-06T05:40:50.150Z,101606.81
2023-04-06T05:43:51.683Z,101612.75
2023-04-06T05:46:53.726Z,101605.59
2023-04-06T05:49:55.493Z,101606.31
2023-04-06T05:52:57.126Z,101600.03
2023-04-06T05:56:02.056Z,101599.88
2023-04-06T05:59:03.673Z,101606.69
2023-04-06T06:02:05.474Z,101595.13
2023-04-06T06:05:07.383Z,101602.75
2023-04-06T06:08:09.151Z,101601.63
2023-04-06T06:11:10.781Z,101603.13
2023-04-06T06:14:12.371Z,101599.41
2023-04-06T06:17:16.190Z,101591.31
2023-04-06T06:20:17.942Z,101591.97
2023-04-06T06:23:19.523Z,101589.25
2023-04-06T06:26:21.367Z,101587.41
2023-04-06T06:29:24.868Z,101589.88
2023-04-06T06:32:27.257Z,101594.94
2023-04-06T06:35:28.905Z,101590.41
2023-04-06T06:38:30.638Z,101587.69
2023-04-06T06:41:32.295Z,101589.34
2023-04-06T06:44:33.947Z,101585.75
2023-04-06T06:47:35.716Z,101592.59
2023-04-06T06:50:37.515Z,101592.44
2023-04-06T06:53:39.179Z,101586.97
2023-04-06T06:56:40.952Z,101584.13
2023-04-06T06:59:42.616Z,101586.53
2023-04-06T07:02:44.316Z,101585.47
2023-04-06T07:05:54.227Z,101581.81
2023-04-06T07:08:56.173Z,101577.13
2023-04-06T07:11:57.806Z,101571.63
2023-04-06T07:14:59.360Z,101568.69
2023-04-06T07:18:01.016Z,101577.16
2023-04-06T07:21:02.593Z,101574.53
2023-04-06T07:24:04.298Z,101570.47
2023-04-06T07:27:05.998Z,101567.38
2023-04-06T07:30:08.488Z,101573.03
2023-04-06T07:33:10.091Z,101574.41
2023-04-06T07:36:11.867Z,101568.78
2023-04-06T07:39:13.659Z,101565.63
2023-04-06T07:42:15.456Z,101559.03
2023-04-06T07:45:17.158Z,101556.00
2023-04-06T07:48:18.729Z,101554.75
2023-04-06T07:51:20.745Z,101555.34
2023-04-06T07:54:22.480Z,101557.72
2023-04-06T07:57:24.087Z,101552.22
2023-04-06T08:00:25.974Z,101550.38
2023-04-06T08:03:27.837Z,101554.50
2023-04-06T08:06:29.763Z,101552.50
2023-04-06T08:09:31.462Z,101548.78
2023-04-06T08:12:34.953Z,101545.13
2023-04-06T08:15:36.669Z,101546.69
2023-04-06T08:18:38.354Z,101537.69
2023-04-06T08:21:41.058Z,101541.03
2023-04-06T08:24:42.930Z,101538.19
2023-04-06T08:27:44.533Z,101539.81
2023-04-06T08:30:46.330Z,101545.84
2023-04-06T08:33:47.927Z,101534.03
2023-04-06T08:36:49.564Z,101535.50
2023-04-06T08:39:51.372Z,101529.84
2023-04-06T08:42:57.588Z,101532.13
2023-04-06T08:46:00.193Z,101531.66
2023-04-06T08:49:03.342Z,101525.97
2023-04-06T08:52:11.597Z,101523.72
2023-04-06T08:55:13.182Z,101525.91
2023-04-06T08:58:24.123Z,101523.63
2023-04-06T09:01:30.629Z,101527.59
2023-04-06T09:04:34.342Z,101523.72
2023-04-06T09:07:36.998Z,101524.41
2023-04-06T09:10:41.974Z,101525.06
2023-04-06T09:13:48.778Z,101520.50
2023-04-06T09:16:50.411Z,101517.66
2023-04-06T09:19:52.682Z,101525.34
2023-04-06T09:22:54.594Z,101523.00
2023-04-06T09:26:11.536Z,101515.28
2023-04-06T09:29:23.471Z,101524.19
2023-04-06T09:32:25.161Z,101526.22
2023-04-06T09:35:31.389Z,101515.03
2023-04-06T09:38:33.043Z,101520.63
2023-04-06T09:41:36.637Z,101510.22
2023-04-06T09:44:38.349Z,101515.47
2023-04-06T09:47:43.763Z,101506.31
2023-04-06T09:50:45.853Z,101512.41
2023-04-06T09:53:53.119Z,101510.00
2023-04-06T09:57:03.348Z,101508.69
2023-04-06T10:00:12.253Z,101510.53
2023-04-06T10:03:46.398Z,101512.31
2023-04-06T10:06:53.307Z,101507.56
2023-04-06T10:09:56.110Z,101509.72
2023-04-06T10:12:58.689Z,101500.56
2023-04-06T10:16:02.607Z,101502.81
2023-04-06T10:19:29.086Z,101496.38
2023-04-06T10:22:44.099Z,101500.00
2023-04-06T10:25:59.247Z,101496.09
2023-04-06T10:29:04.961Z,101497.84
2023-04-06T10:32:06.546Z,101495.53
2023-04-06T10:35:09.085Z,101503.09
2023-04-06T10:38:11.000Z,101499.50
2023-04-06T10:41:13.174Z,101493.28
2023-04-06T10:44:27.108Z,101491.72
2023-04-06T10:47:28.693Z,101492.16
2023-04-06T10:50:30.791Z,101493.91
2023-04-06T10:53:34.314Z,101490.16
2023-04-06T10:56:38.232Z,101495.50
2023-04-06T10:59:43.503Z,101477.13
2023-04-06T11:02:45.141Z,101483.91
2023-04-06T11:05:50.747Z,101478.97
2023-04-06T11:08:53.009Z,101481.72
2023-04-06T11:11:55.385Z,101468.66
2023-04-06T11:15:07.123Z,101466.63
2023-04-06T11:18:08.926Z,101466.53
2023-04-06T11:21:10.866Z,101471.28
2023-04-06T11:24:13.789Z,101472.72
2023-04-06T11:27:17.126Z,101462.53
2023-04-06T11:30:19.309Z,101461.56
2023-04-06T11:33:23.914Z,101458.13
2023-04-06T11:36:31.141Z,101449.59
2023-04-06T11:39:38.234Z,101444.41
2023-04-06T11:42:39.911Z,101449.47
2023-04-06T11:45:44.818Z,101445.94
2023-04-06T11:48:47.443Z,101441.91
2023-04-06T11:51:49.132Z,101437.94
2023-04-06T11:54:52.857Z,101445.66
2023-04-06T11:57:54.541Z,101437.19
2023-04-06T12:01:04.537Z,101449.22
2023-04-06T12:04:06.190Z,101443.88
2023-04-06T12:07:10.054Z,101436.41
2023-04-06T12:10:11.923Z,101432.13
2023-04-06T12:13:13.640Z,101432.97
2023-04-06T12:16:15.663Z,101421.84
2023-04-06T12:19:17.445Z,101425.06
2023-04-06T12:22:19.192Z,101419.72
2023-04-06T12:25:21.164Z,101417.56
2023-04-06T12:28:26.748Z,101427.19
2023-04-06T12:31:28.619Z,101409.75
2023-04-06T12:34:30.310Z,101403.53
2023-04-06T12:37:31.883Z,101402.91
2023-04-06T12:40:37.922Z,101399.03
2023-04-06T12:43:44.175Z,101400.78
2023-04-06T12:46:46.485Z,101401.59
2023-04-06T12:49:48.070Z,101394.03
2023-04-06T12:52:49.680Z,101403.75
2023-04-06T12:55:51.293Z,101398.72
2023-04-06T12:58:53.528Z,101392.28
2023-04-06T13:01:55.392Z,101392.09
2023-04-06T13:04:57.005Z,101389.38
2023-04-06T13:07:58.553Z,101385.50
2023-04-06T13:11:00.126Z,101384.09
2023-04-06T13:14:01.683Z,101389.09
2023-04-06T13:17:03.223Z,101386.69
2023-04-06T13:20:05.439Z,101382.09
2023-04-06T13:23:07.007Z,101375.69
2023-04-06T13:26:09.023Z,101372.69
2023-04-06T13:29:10.645Z,101374.72
2023-04-06T13:32:12.341Z,101365.53
2023-04-06T13:35:14.312Z,101375.81
2023-04-06T13:38:16.184Z,101375.56
2023-04-06T13:41:24.529Z,101373.00
2023-04-06T13:44:26.107Z,101370.13
2023-04-06T13:47:28.574Z,101357.81
2023-04-06T13:50:30.425Z,101368.72
2023-04-06T13:53:31.989Z,101358.88
2023-04-06T13:56:33.500Z,101366.56
2023-04-06T13:59:39.301Z,101361.03
2023-04-06T14:02:41.155Z,101364.47
2023-04-06T14:05:42.942Z,101362.31
2023-04-06T14:08:44.555Z,101353.53
2023-04-06T14:11:46.241Z,101342.63
2023-04-06T14:14:47.780Z,101349.31
2023-04-06T14:17:49.648Z,101345.81
2023-04-06T14:20:57.381Z,101351.78
2023-04-06T14:23:59.854Z,101354.66
2023-04-06T14:27:02.103Z,101345.59
2023-04-06T14:30:04.106Z,101346.88
2023-04-06T14:33:05.940Z,101348.78
2023-04-06T14:36:08.344Z,101342.28
2023-04-06T14:39:10.931Z,101334.28
2023-04-06T14:42:12.468Z,101339.78
2023-04-06T14:45:14.118Z,101332.72
2023-04-06T14:48:16.849Z,101334.44
2023-04-06T14:51:18.426Z,101327.91
2023-04-06T14:54:19.970Z,101323.84
2023-04-06T14:57:21.488Z,101332.16
2023-04-06T15:00:23.265Z,101320.09
2023-04-06T15:03:26.613Z,101323.84
2023-04-06T15:06:28.313Z,101310.69
2023-04-06T15:09:30.341Z,101325.00
2023-04-06T15:12:33.208Z,101314.50
2023-04-06T15:15:34.804Z,101326.34
2023-04-06T15:18:36.560Z,101321.13
2023-04-06T15:21:38.186Z,101317.91
2023-04-06T15:24:39.717Z,101323.56
2023-04-06T15:27:41.326Z,101319.50
2023-04-06T15:30:42.921Z,101315.97
2023-04-06T15:33:45.029Z,101318.50
2023-04-06T15:36:46.811Z,101322.06
2023-04-06T15:39:48.389Z,101308.81
2023-04-06T15:42:50.836Z,101308.25
2023-04-06T15:45:53.843Z,101312.63
2023-04-06T15:48:55.665Z,101304.31
2023-04-06T15:51:57.333Z,101302.41
2023-04-06T15:54:59.032Z,101308.59
2023-04-06T15:58:00.832Z,101306.34
2023-04-06T16:01:11.783Z,101308.66
2023-04-06T16:04:14.894Z,101302.97
2023-04-06T16:07:16.774Z,101308.31
2023-04-06T16:10:18.479Z,101304.53
2023-04-06T16:13:21.534Z,101309.31
2023-04-06T16:16:24.183Z,101306.75
2023-04-06T16:19:25.977Z,101310.38
2023-04-06T16:22:28.742Z,101304.19
2023-04-06T16:25:30.702Z,101302.56
2023-04-06T16:28:33.122Z,101306.19
2023-04-06T16:31:34.745Z,101298.41
2023-04-06T16:34:36.649Z,101303.06
2023-04-06T16:37:38.220Z,101299.19
2023-04-06T16:40:41.031Z,101296.06
2023-04-06T16:43:42.759Z,101295.38
2023-04-06T16:46:44.599Z,101300.16
2023-04-06T16:49:46.551Z,101291.53
2023-04-06T16:52:48.122Z,101292.66
2023-04-06T16:55:49.689Z,101296.38
2023-04-06T16:58:51.350Z,101292.34
2023-04-06T17:01:53.068Z,101291.22
2023-04-06T17:04:54.680Z,101296.97
2023-04-06T17:07:56.398Z,101292.13
2023-04-06T17:11:02.559Z,101293.34
2023-04-06T17:14:04.401Z,101286.69
2023-04-06T17:17:06.837Z,101296.03
2023-04-06T17:20:08.981Z,101300.03
2023-04-06T17:23:10.809Z,101301.56
2023-04-06T17:26:12.479Z,101298.69
2023-04-06T17:29:14.053Z,101302.00
2023-04-06T17:32:16.589Z,101305.38
2023-04-06T17:35:18.166Z,101308.69
2023-04-06T17:38:19.971Z,101311.81
2023-04-06T17:41:21.822Z,101309.66
2023-04-06T17:44:23.435Z,101310.91
2023-04-06T17:47:25.809Z,101306.03
2023-04-06T17:50:27.439Z,101314.25
2023-04-06T17:53:34.429Z,101309.19
2023-04-06T17:56:35.990Z,101321.06
2023-04-06T17:59:37.615Z,101317.03
2023-04-06T18:02:39.299Z,101320.91
2023-04-06T18:05:41.460Z,101321.34
2023-04-06T18:08:43.294Z,101322.53
2023-04-06T18:11:45.444Z,101314.63
2023-04-06T18:14:47.102Z,101318.75
2023-04-06T18:17:50.525Z,101321.06
2023-04-06T18:20:52.098Z,101318.94
2023-04-06T18:23:54.657Z,101324.84
2023-04-06T18:26:57.620Z,101323.63
2023-04-06T18:30:01.043Z,101319.50
2023-04-06T18:33:02.943Z,101328.34
2023-04-06T18:36:04.997Z,101328.59
2023-04-06T18:39:06.599Z,101329.91
2023-04-06T18:42:08.130Z,101333.84
2023-04-06T18:45:10.044Z,101331.59
2023-04-06T18:48:11.804Z,101330.19
2023-04-06T18:51:13.563Z,101331.47
2023-04-06T18:54:15.629Z,101334.53
2023-04-06T18:57:17.225Z,101345.03
2023-04-06T19:00:18.883Z,101343.16
2023-04-06T19:03:22.174Z,101350.00
2023-04-06T19:06:24.842Z,101347.09
2023-04-06T19:09:27.553Z,101351.09
2023-04-06T19:12:29.168Z,101347.94
2023-04-06T19:15:31.369Z,101348.41
2023-04-06T19:18:32.966Z,101349.69
2023-04-06T19:21:34.549Z,101351.00
2023-04-06T19:24:36.246Z,101345.00
2023-04-06T19:27:37.926Z,101353.19
2023-04-06T19:30:41.274Z,101352.41
2023-04-06T19:33:43.660Z,101352.41
2023-04-06T19:36:45.905Z,101350.50
2023-04-06T19:39:47.859Z,101351.31
2023-04-06T19:42:49.396Z,101348.63
2023-04-06T19:45:51.380Z,101354.84
2023-04-06T19:48:53.091Z,101353.13
2023-04-06T19:51:57.579Z,101364.75
2023-04-06T19:55:00.287Z,101359.03
2023-04-06T19:58:01.960Z,101356.78
2023-04-06T20:01:04.420Z,101359.78
2023-04-06T20:04:07.035Z,101354.94
2023-04-06T20:07:08.871Z,101360.66
2023-04-06T20:10:10.818Z,101360.16
2023-04-06T20:13:12.605Z,101355.97
2023-04-06T20:16:15.412Z,101358.06
2023-04-06T20:19:17.029Z,101359.31
2023-04-06T20:22:18.613Z,101353.31
2023-04-06T20:25:22.100Z,101355.00
2023-04-06T20:28:24.314Z,101355.09
2023-04-06T20:31:27.542Z,101356.09
2023-04-06T20:34:29.852Z,101359.78
2023-04-06T20:37:31.430Z,101353.81
2023-04-06T20:40:32.960Z,101356.75
2023-04-06T20:43:35.569Z,101367.59
2023-04-06T20:46:37.237Z,101371.44
2023-04-06T20:49:38.816Z,101358.47
2023-04-06T20:52:40.401Z,101357.81
2023-04-06T20:55:42.145Z,101356.28
2023-04-06T20:58:43.754Z,101359.06
2023-04-06T21:01:45.564Z,101358.34
2023-04-06T21:04:48.527Z,101361.09
2023-04-06T21:07:50.394Z,101351.50
2023-04-06T21:10:51.974Z,101347.22
2023-04-06T21:13:53.530Z,101346.41
2023-04-06T21:16:55.883Z,101348.25
2023-04-06T21:19:57.460Z,101350.16
2023-04-06T21:22:59.008Z,101340.59
2023-04-06T21:26:02.051Z,101344.28
2023-04-06T21:29:03.652Z,101343.53
2023-04-06T21:32:05.483Z,101343.75
2023-04-06T21:35:07.630Z,101351.06
2023-04-06T21:38:09.265Z,101372.47
2023-04-06T21:41:10.960Z,101360.13
2023-04-06T21:44:12.515Z,101369.81
2023-04-06T21:47:14.041Z,101352.25
2023-04-06T21:50:16.353Z,101354.34
2023-04-06T21:53:18.308Z,101351.13
2023-04-06T21:56:22.136Z,101356.59
2023-04-06T21:59:23.688Z,101351.31
2023-04-06T22:02:25.557Z,101353.09
2023-04-06T22:05:27.293Z,101352.31
2023-04-06T22:08:33.808Z,101343.69
2023-04-06T22:11:36.063Z,101344.94
2023-04-06T22:14:37.667Z,101347.78
2023-04-06T22:17:40.259Z,101338.97
2023-04-06T22:20:41.881Z,101353.16
2023-04-06T22:23:43.445Z,101346.28
2023-04-06T22:26:45.008Z,101353.53
2023-04-06T22:29:46.557Z,101352.16
2023-04-06T22:32:48.126Z,101353.44
2023-04-06T22:35:49.760Z,101348.44
2023-04-06T22:38:51.501Z,101354.88
2023-04-06T22:41:53.047Z,101355.09
2023-04-06T22:44:54.574Z,101360.56
2023-04-06T22:47:56.163Z,101359.00
2023-04-06T22:50:57.771Z,101353.78
2023-04-06T22:53:59.359Z,101356.47
2023-04-06T22:57:01.199Z,101358.19
2023-04-06T23:00:05.833Z,101362.63
2023-04-06T23:03:07.474Z,101352.91
2023-04-06T23:06:09.255Z,101354.66
2023-04-06T23:09:10.861Z,101364.34
2023-04-06T23:12:12.417Z,101364.44
2023-04-06T23:15:14.535Z,101366.28
2023-04-06T23:18:16.394Z,101374.38
2023-04-06T23:21:17.969Z,101378.84
2023-04-06T23:24:19.514Z,101363.16
2023-04-06T23:27:21.071Z,101375.56
2023-04-06T23:30:22.846Z,101374.81
2023-04-06T23:33:24.483Z,101378.41
2023-04-06T23:36:26.969Z,101373.31
2023-04-06T23:39:31.082Z,101369.84
2023-04-06T23:42:32.679Z,101359.25
2023-04-06T23:45:34.393Z,101369.75
2023-04-06T23:48:36.173Z,101378.59
2023-04-06T23:51:37.713Z,101369.94
2023-04-06T23:54:39.268Z,101378.81
2023-04-06T23:57:40.944Z,101377.13
